Time;durP1;ratioP1;P1;durP2;ratioP2;P2;SDS_P1;SDS_P2;PMS_P1;PMS_P2;Temp;Humidity;BMP_temperature;BMP_pressure;BME280_temperature;BME280_humidity;BME280_pressure;Samples;Min_cycle;Max_cycle;Signal;HPM_P1;HPM_P2
2024/01/11 00:02:06;;;;;;;13.10;8.27;;;-4.50;97.40;;;;;;5052840;28;20196;-75
2024/01/11 00:04:34;;;;;;;9.32;7.28;;;-4.50;97.50;;;;;;5050356;28;20204;-75
2024/01/11 00:07:01;;;;;;;14.60;7.85;;;-4.50;97.60;;;;;;5052126;28;20229;-75
2024/01/11 00:09:28;;;;;;;7.00;6.38;;;-4.50;97.70;;;;;;5046911;27;20253;-75
2024/01/11 00:11:55;;;;;;;9.85;7.25;;;-4.50;97.80;;;;;;5072187;27;20236;-75
2024/01/11 00:14:22;;;;;;;12.65;9.23;;;-4.50;97.90;;;;;;5045338;28;20211;-76
2024/01/11 00:16:48;;;;;;;12.27;7.80;;;-4.50;97.40;;;;;;5045459;28;20558;-75
2024/01/11 00:19:15;;;;;;;12.35;7.78;;;-4.40;97.10;;;;;;5049658;28;20585;-75
2024/01/11 00:21:43;;;;;;;10.68;7.55;;;-4.50;96.80;;;;;;5045264;28;20220;-75
2024/01/11 00:24:10;;;;;;;10.50;8.00;;;-4.60;96.90;;;;;;5043720;28;20277;-76
2024/01/11 00:26:37;;;;;;;12.75;9.15;;;-4.70;96.90;;;;;;5039494;28;20207;-75
2024/01/11 00:29:04;;;;;;;16.67;11.32;;;-4.80;97.20;;;;;;5033820;28;20205;-75
2024/01/11 00:31:31;;;;;;;8.98;7.15;;;-4.70;97.70;;;;;;5044366;28;20339;-75
2024/01/11 00:33:57;;;;;;;10.02;9.18;;;-4.70;97.70;;;;;;5046785;28;20653;-75
2024/01/11 00:36:24;;;;;;;9.15;8.30;;;-4.70;97.50;;;;;;5045884;28;20246;-75
2024/01/11 00:38:52;;;;;;;14.40;9.77;;;-4.90;97.60;;;;;;5050144;28;20215;-75
2024/01/11 00:41:19;;;;;;;7.68;6.85;;;-4.80;98.20;;;;;;5042219;28;20227;-75
2024/01/11 00:43:46;;;;;;;7.82;7.07;;;-4.80;98.40;;;;;;5060325;27;20200;-75
2024/01/11 00:46:13;;;;;;;13.43;8.55;;;-4.80;98.40;;;;;;5051816;28;20208;-75
2024/01/11 00:48:39;;;;;;;11.13;8.55;;;-4.80;98.60;;;;;;5040139;28;20606;-75
2024/01/11 00:51:07;;;;;;;18.63;8.48;;;-4.80;98.50;;;;;;5044436;28;20235;-75
2024/01/11 00:53:34;;;;;;;12.20;9.80;;;-4.90;98.50;;;;;;5050518;28;20212;-75
2024/01/11 00:56:02;;;;;;;16.77;5.50;;;-5.00;98.70;;;;;;5049026;28;20286;-75
2024/01/11 00:58:29;;;;;;;11.48;9.00;;;-4.90;99.10;;;;;;5053793;28;20316;-75
2024/01/11 01:00:56;;;;;;;13.55;9.40;;;-4.90;99.10;;;;;;5047747;27;20232;-75
2024/01/11 01:03:23;;;;;;;16.55;9.40;;;-5.00;99.20;;;;;;5049096;27;20224;-75
2024/01/11 01:05:50;;;;;;;13.35;10.85;;;-5.00;99.30;;;;;;5040258;28;20528;-75
2024/01/11 01:08:17;;;;;;;6.82;6.32;;;-4.90;99.60;;;;;;5044989;27;20204;-75
2024/01/11 01:10:44;;;;;;;19.48;8.77;;;-4.90;99.20;;;;;;5044125;28;20664;-75
2024/01/11 01:13:12;;;;;;;8.40;7.78;;;-5.00;99.30;;;;;;5046495;28;20227;-75
2024/01/11 01:15:39;;;;;;;11.65;7.25;;;-5.00;99.40;;;;;;5062121;27;20212;-75
2024/01/11 01:18:06;;;;;;;10.02;8.93;;;-4.90;99.20;;;;;;5044022;27;20265;-75
2024/01/11 01:20:32;;;;;;;18.10;10.25;;;-4.80;98.50;;;;;;5043193;28;20208;-75
2024/01/11 01:22:59;;;;;;;10.48;7.07;;;-4.80;97.90;;;;;;5044316;27;20200;-75
2024/01/11 01:25:26;;;;;;;9.52;8.52;;;-4.80;97.90;;;;;;5041094;28;20211;-75
2024/01/11 01:27:53;;;;;;;7.18;4.57;;;-4.90;97.80;;;;;;5044923;28;20231;-75
2024/01/11 01:30:21;;;;;;;16.77;9.32;;;-4.90;98.20;;;;;;5044414;28;20204;-75
2024/01/11 01:32:48;;;;;;;18.67;9.82;;;-4.90;98.60;;;;;;5042819;28;20230;-75
2024/01/11 01:35:15;;;;;;;13.30;7.78;;;-5.00;99.00;;;;;;5041261;28;20219;-75
2024/01/11 01:37:42;;;;;;;22.88;9.60;;;-5.00;99.70;;;;;;5054897;28;20208;-75
2024/01/11 01:40:10;;;;;;;21.80;8.52;;;-5.00;99.50;;;;;;5060551;27;20208;-75
2024/01/11 01:42:41;;;;;;;10.68;9.70;;;-5.00;99.60;;;;;;5062882;28;20254;-75
2024/01/11 01:45:09;;;;;;;15.52;10.52;;;-5.10;99.60;;;;;;5062596;28;20203;-75
2024/01/11 01:47:38;;;;;;;9.45;8.20;;;-4.90;99.60;;;;;;5053208;27;20220;-75
2024/01/11 01:50:06;;;;;;;10.18;8.60;;;-4.90;99.30;;;;;;5057887;28;20708;-75
2024/01/11 01:52:34;;;;;;;8.38;7.68;;;-4.90;98.80;;;;;;5056395;28;20221;-75
2024/01/11 01:55:04;;;;;;;16.83;7.65;;;-4.80;98.40;;;;;;5040843;28;20201;-75
2024/01/11 01:57:33;;;;;;;11.57;8.73;;;-4.90;98.00;;;;;;5051830;27;20264;-75
2024/01/11 02:00:01;;;;;;;18.95;11.52;;;-4.90;98.00;;;;;;5049964;28;20573;-75
2024/01/11 02:02:29;;;;;;;7.88;7.13;;;-4.90;98.10;;;;;;5053217;28;20569;-75
2024/01/11 02:04:59;;;;;;;16.30;8.18;;;-5.00;97.90;;;;;;5050108;28;20247;-75
2024/01/11 02:07:26;;;;;;;14.88;7.43;;;-5.00;97.90;;;;;;5053545;28;20356;-75
2024/01/11 02:09:55;;;;;;;11.23;9.95;;;-5.00;98.00;;;;;;5054264;28;20200;-75
2024/01/11 02:12:24;;;;;;;9.30;8.27;;;-5.00;98.20;;;;;;5048026;28;20584;-75
2024/01/11 02:14:52;;;;;;;8.80;7.22;;;-5.00;98.60;;;;;;5043994;28;20273;-75
2024/01/11 02:17:18;;;;;;;9.32;8.40;;;-5.20;98.60;;;;;;5050149;28;20585;-75
2024/01/11 02:19:45;;;;;;;17.33;9.77;;;-5.20;99.10;;;;;;5049462;28;20521;-75
2024/01/11 02:22:18;;;;;;;11.77;8.02;;;-5.20;99.40;;;;;;5047464;28;20278;-75
2024/01/11 02:24:47;;;;;;;13.60;9.77;;;-5.20;99.70;;;;;;5043439;28;20205;-75
2024/01/11 02:27:14;;;;;;;11.85;7.80;;;-5.20;99.90;;;;;;5047731;28;20209;-75
2024/01/11 02:29:40;;;;;;;12.65;10.45;;;-5.10;99.90;;;;;;5042650;28;20569;-75
2024/01/11 02:32:08;;;;;;;11.60;9.80;;;-5.20;99.90;;;;;;5035823;28;20278;-75
2024/01/11 02:34:37;;;;;;;13.32;9.60;;;-5.10;99.90;;;;;;5045214;28;20548;-75
2024/01/11 02:37:06;;;;;;;14.23;9.25;;;-5.00;99.90;;;;;;5047257;28;20281;-75
2024/01/11 02:39:34;;;;;;;8.95;7.85;;;-5.00;99.90;;;;;;5046487;28;20304;-75
2024/01/11 02:42:06;;;;;;;13.48;8.43;;;-5.10;99.90;;;;;;5052952;28;20207;-75
2024/01/11 02:44:34;;;;;;;17.88;9.57;;;-5.20;99.90;;;;;;5057428;28;20218;-75
2024/01/11 02:47:02;;;;;;;11.43;8.27;;;-5.20;99.90;;;;;;5054076;27;20197;-75
2024/01/11 02:49:30;;;;;;;12.27;9.80;;;-5.20;99.90;;;;;;5044797;28;20283;-75
2024/01/11 02:51:58;;;;;;;11.55;9.93;;;-5.30;99.90;;;;;;5051533;28;20223;-75
2024/01/11 02:54:26;;;;;;;10.98;9.98;;;-5.20;99.90;;;;;;5050368;28;20212;-75
2024/01/11 02:56:54;;;;;;;10.60;9.52;;;-5.30;99.90;;;;;;5048802;28;20209;-75
2024/01/11 02:59:23;;;;;;;8.55;7.82;;;-5.30;99.90;;;;;;5043195;28;20212;-75
2024/01/11 03:01:51;;;;;;;16.02;10.13;;;-5.30;99.90;;;;;;5050955;27;20216;-75
2024/01/11 03:04:19;;;;;;;6.95;6.35;;;-5.30;99.90;;;;;;5043544;28;20216;-75
2024/01/11 03:06:46;;;;;;;9.82;7.95;;;-5.40;99.90;;;;;;5044848;28;20209;-75
2024/01/11 03:09:14;;;;;;;9.50;8.23;;;-5.40;99.90;;;;;;5047369;28;20297;-75
2024/01/11 03:11:42;;;;;;;9.30;7.32;;;-5.30;99.90;;;;;;5048583;28;20208;-75
2024/01/11 03:14:09;;;;;;;12.30;9.48;;;-5.30;99.90;;;;;;5044945;28;20196;-75
2024/01/11 03:16:39;;;;;;;15.63;11.10;;;-5.20;99.90;;;;;;5042292;28;20205;-75
2024/01/11 03:19:07;;;;;;;9.60;8.20;;;-5.20;99.90;;;;;;5045402;28;20214;-75
2024/01/11 03:21:34;;;;;;;12.73;7.57;;;-5.10;99.90;;;;;;5045068;28;20209;-75
2024/01/11 03:24:01;;;;;;;11.15;8.55;;;-5.20;99.90;;;;;;5046137;28;20204;-75
2024/01/11 03:26:29;;;;;;;14.52;8.07;;;-5.20;99.90;;;;;;5047747;28;20200;-75
2024/01/11 03:28:56;;;;;;;10.70;7.47;;;-5.30;99.90;;;;;;5047123;28;20204;-75
2024/01/11 03:31:24;;;;;;;9.48;8.50;;;-5.30;99.90;;;;;;5040268;28;20716;-75
2024/01/11 03:33:53;;;;;;;15.30;8.85;;;-5.30;99.90;;;;;;5039760;27;20248;-75
2024/01/11 03:36:24;;;;;;;19.00;10.43;;;-5.20;99.90;;;;;;5037235;28;20213;-75
2024/01/11 03:38:52;;;;;;;8.80;7.90;;;-5.10;99.90;;;;;;5057431;28;20671;-75
2024/01/11 03:41:20;;;;;;;7.57;6.43;;;-5.10;99.70;;;;;;5045014;28;20204;-75
2024/01/11 03:43:47;;;;;;;11.60;9.77;;;-5.10;99.20;;;;;;5056480;28;20292;-75
2024/01/11 03:46:14;;;;;;;12.27;8.77;;;-5.10;99.30;;;;;;5051133;28;20200;-75
2024/01/11 03:48:41;;;;;;;12.43;6.40;;;-5.30;98.90;;;;;;5038603;28;20698;-75
2024/01/11 03:51:09;;;;;;;13.38;8.52;;;-5.30;99.40;;;;;;5044601;27;20687;-75
2024/01/11 03:53:37;;;;;;;12.93;9.07;;;-5.40;99.60;;;;;;5049600;28;20311;-75
2024/01/11 03:56:04;;;;;;;11.95;8.85;;;-5.40;99.80;;;;;;5053099;28;20200;-75
2024/01/11 03:58:32;;;;;;;11.48;7.60;;;-5.60;99.90;;;;;;5047863;28;20287;-75
2024/01/11 04:00:59;;;;;;;9.05;8.15;;;-5.60;99.90;;;;;;5056127;27;20699;-75
2024/01/11 04:03:26;;;;;;;16.30;9.52;;;-5.60;99.90;;;;;;5079384;27;20909;-75
2024/01/11 04:05:53;;;;;;;15.65;9.75;;;-5.60;99.90;;;;;;5064746;27;20569;-75
2024/01/11 04:08:21;;;;;;;13.32;8.60;;;-5.60;99.90;;;;;;5076363;27;20793;-75
2024/01/11 04:10:47;;;;;;;16.80;10.93;;;-5.70;99.90;;;;;;5078196;27;20212;-75
2024/01/11 04:13:14;;;;;;;6.28;5.75;;;-5.70;99.90;;;;;;5089600;27;20223;-75
2024/01/11 04:15:41;;;;;;;13.90;8.65;;;-5.70;99.90;;;;;;5067981;27;20201;-75
2024/01/11 04:18:08;;;;;;;7.97;7.18;;;-5.80;99.90;;;;;;5041136;28;20201;-75
2024/01/11 04:20:35;;;;;;;16.08;10.75;;;-5.70;99.90;;;;;;5054538;28;20292;-75
2024/01/11 04:23:02;;;;;;;17.50;9.88;;;-5.80;99.90;;;;;;5042897;28;20288;-75
2024/01/11 04:25:30;;;;;;;19.73;11.68;;;-5.80;99.90;;;;;;5043688;28;20601;-75
2024/01/11 04:27:56;;;;;;;26.58;10.88;;;-5.70;99.90;;;;;;5054413;28;20295;-75
2024/01/11 04:30:23;;;;;;;16.88;9.68;;;-5.70;99.90;;;;;;5049869;28;20208;-75
2024/01/11 04:32:50;;;;;;;12.73;9.65;;;-5.70;99.90;;;;;;5045260;28;20223;-75
2024/01/11 04:35:17;;;;;;;11.77;10.68;;;-5.70;99.90;;;;;;5047443;28;20207;-75
2024/01/11 04:37:43;;;;;;;13.73;9.07;;;-5.60;99.90;;;;;;5046670;28;20214;-75
2024/01/11 04:40:11;;;;;;;22.05;13.07;;;-5.60;99.90;;;;;;5047185;28;20205;-75
2024/01/11 04:42:39;;;;;;;13.27;9.70;;;-5.60;99.90;;;;;;5043808;28;20291;-75
2024/01/11 04:45:06;;;;;;;14.02;8.52;;;-5.50;99.90;;;;;;5048516;28;20676;-75
2024/01/11 04:47:33;;;;;;;16.88;10.18;;;-5.50;99.90;;;;;;5045067;27;20566;-75
2024/01/11 04:50:00;;;;;;;11.98;6.43;;;-5.60;99.90;;;;;;5052540;27;20212;-75
2024/01/11 04:52:26;;;;;;;17.17;10.07;;;-5.70;99.90;;;;;;5038794;28;20234;-75
2024/01/11 04:54:53;;;;;;;7.43;6.70;;;-5.70;99.90;;;;;;5039965;28;20205;-75
2024/01/11 04:57:20;;;;;;;15.45;10.02;;;-5.70;99.90;;;;;;5038905;28;20210;-75
2024/01/11 04:59:48;;;;;;;10.63;9.60;;;-5.60;99.90;;;;;;5032736;28;20212;-75
2024/01/11 05:02:15;;;;;;;11.20;9.95;;;-5.60;99.90;;;;;;5053077;28;20290;-75
2024/01/11 05:04:41;;;;;;;12.88;9.85;;;-5.40;99.90;;;;;;5048214;28;20830;-75
2024/01/11 05:07:08;;;;;;;15.13;9.60;;;-5.50;99.90;;;;;;5039928;28;20537;-75
2024/01/11 05:09:35;;;;;;;15.40;11.30;;;-5.40;99.90;;;;;;5052990;28;20203;-75
2024/01/11 05:12:02;;;;;;;19.52;11.77;;;-5.40;99.90;;;;;;5050821;28;20204;-75
2024/01/11 05:14:28;;;;;;;9.40;8.38;;;-5.40;99.50;;;;;;5044797;28;20204;-75
2024/01/11 05:16:57;;;;;;;12.30;8.95;;;-5.30;99.10;;;;;;5058064;28;20208;-75
2024/01/11 05:19:23;;;;;;;17.10;8.20;;;-5.20;99.00;;;;;;5048697;28;20207;-75
2024/01/11 05:21:50;;;;;;;5.65;5.10;;;-5.30;98.80;;;;;;5053593;28;20205;-75
2024/01/11 05:24:17;;;;;;;7.78;7.03;;;-5.40;98.80;;;;;;5044237;28;20210;-75
2024/01/11 05:26:44;;;;;;;11.30;9.00;;;-5.40;98.70;;;;;;5050490;28;20281;-75
2024/01/11 05:29:10;;;;;;;8.65;6.50;;;-5.60;98.40;;;;;;5054889;28;20671;-75
2024/01/11 05:31:37;;;;;;;15.23;8.52;;;-5.50;98.60;;;;;;5037584;28;20549;-76
2024/01/11 05:34:05;;;;;;;9.20;7.55;;;-5.70;98.50;;;;;;5040925;28;20224;-75
2024/01/11 05:36:32;;;;;;;11.80;8.50;;;-5.90;98.90;;;;;;5039874;28;20205;-75
2024/01/11 05:38:59;;;;;;;8.93;6.20;;;-5.80;99.90;;;;;;5045480;28;20209;-75
2024/01/11 05:41:26;;;;;;;14.32;9.70;;;-5.80;99.90;;;;;;5043294;28;20295;-75
2024/01/11 05:43:52;;;;;;;11.52;8.85;;;-5.70;99.90;;;;;;5048451;28;20209;-76
2024/01/11 05:46:19;;;;;;;12.85;10.00;;;-5.70;99.90;;;;;;5046465;28;20213;-76
2024/01/11 05:48:46;;;;;;;13.93;8.75;;;-5.70;99.90;;;;;;5045912;28;20212;-76
2024/01/11 05:51:14;;;;;;;10.35;9.40;;;-5.70;99.90;;;;;;5051376;27;20227;-74
2024/01/11 05:53:41;;;;;;;7.25;4.78;;;-5.60;99.90;;;;;;5027676;28;20592;-74
2024/01/11 05:56:09;;;;;;;9.23;7.93;;;-5.50;99.90;;;;;;5035487;28;20295;-74
2024/01/11 05:58:36;;;;;;;32.53;12.82;;;-5.50;99.90;;;;;;5037729;27;20227;-74
2024/01/11 06:01:03;;;;;;;17.77;10.82;;;-5.50;99.90;;;;;;5043668;28;20212;-74
2024/01/11 06:03:33;;;;;;;13.23;11.35;;;-5.50;99.90;;;;;;5051167;28;20717;-75
2024/01/11 06:06:01;;;;;;;13.15;8.25;;;-5.60;99.90;;;;;;5047030;28;20212;-77
2024/01/11 06:08:30;;;;;;;14.00;10.93;;;-5.60;99.90;;;;;;5052889;27;20205;-76
2024/01/11 06:10:56;;;;;;;9.15;6.65;;;-5.60;99.90;;;;;;5043862;28;20210;-75
2024/01/11 06:13:23;;;;;;;17.33;12.40;;;-5.70;99.90;;;;;;5052396;28;20225;-76
2024/01/11 06:15:50;;;;;;;12.75;10.05;;;-5.70;99.90;;;;;;5054473;28;20202;-74
2024/01/11 06:18:17;;;;;;;12.98;10.30;;;-5.70;99.90;;;;;;5055613;27;20205;-78
2024/01/11 06:20:44;;;;;;;8.82;7.85;;;-5.70;99.90;;;;;;5050742;28;20209;-79
2024/01/11 06:23:11;;;;;;;8.13;7.05;;;-5.60;99.90;;;;;;5056359;28;20200;-79
2024/01/11 06:25:39;;;;;;;12.20;8.48;;;-5.70;99.90;;;;;;5046069;27;20616;-78
2024/01/11 06:28:09;;;;;;;11.68;9.57;;;-5.70;99.90;;;;;;5044127;28;20231;-77
2024/01/11 06:30:36;;;;;;;13.27;8.90;;;-5.80;99.90;;;;;;5043796;28;20215;-78
2024/01/11 06:33:03;;;;;;;9.05;8.15;;;-5.80;99.90;;;;;;5047361;28;20224;-72
2024/01/11 06:35:30;;;;;;;13.98;7.85;;;-5.90;99.90;;;;;;5046910;28;20205;-73
2024/01/11 06:37:57;;;;;;;16.20;10.35;;;-5.80;99.90;;;;;;5049619;27;21330;-73
2024/01/11 06:40:24;;;;;;;12.73;8.45;;;-5.90;99.90;;;;;;5053674;28;20547;-72
2024/01/11 06:42:53;;;;;;;21.63;11.32;;;-5.80;99.90;;;;;;5043987;28;20204;-73
2024/01/11 06:45:19;;;;;;;10.50;8.40;;;-5.70;99.90;;;;;;5053286;28;20204;-73
2024/01/11 06:47:47;;;;;;;10.10;8.93;;;-5.70;99.90;;;;;;5050014;28;20219;-72
2024/01/11 06:50:14;;;;;;;22.55;9.40;;;-5.80;99.90;;;;;;5057747;27;20673;-73
2024/01/11 06:52:40;;;;;;;11.43;8.30;;;-5.80;99.90;;;;;;5041189;28;20205;-73
2024/01/11 06:55:08;;;;;;;10.18;8.10;;;-5.90;99.90;;;;;;5041699;28;20215;-73
2024/01/11 06:57:35;;;;;;;10.98;9.77;;;-5.80;99.90;;;;;;5046772;28;20209;-73
2024/01/11 07:00:05;;;;;;;10.38;9.25;;;-5.80;99.90;;;;;;5038826;27;20803;-72
2024/01/11 07:02:31;;;;;;;7.75;6.95;;;-5.70;99.90;;;;;;5037321;28;20721;-72
2024/01/11 07:04:58;;;;;;;9.40;8.07;;;-5.80;99.90;;;;;;5059359;28;20208;-73
2024/01/11 07:07:26;;;;;;;11.43;10.23;;;-5.90;99.90;;;;;;5063641;28;20208;-73
2024/01/11 07:09:55;;;;;;;16.20;10.85;;;-5.90;99.90;;;;;;5063762;27;20208;-72
2024/01/11 07:12:22;;;;;;;9.32;8.52;;;-5.90;99.90;;;;;;5061581;27;20208;-72
2024/01/11 07:14:49;;;;;;;11.05;9.27;;;-5.80;99.90;;;;;;5061876;28;20640;-73
2024/01/11 07:17:17;;;;;;;15.10;10.23;;;-5.90;99.90;;;;;;5050620;27;20201;-74
2024/01/11 07:19:44;;;;;;;11.18;9.88;;;-5.90;99.90;;;;;;5051508;28;20300;-72
2024/01/11 07:22:10;;;;;;;11.88;8.00;;;-6.00;99.90;;;;;;5058827;28;20204;-73
2024/01/11 07:24:38;;;;;;;15.45;11.80;;;-6.00;99.90;;;;;;5044600;28;20726;-73
2024/01/11 07:27:05;;;;;;;10.38;8.93;;;-5.80;99.90;;;;;;5058618;28;20978;-73
2024/01/11 07:29:32;;;;;;;10.57;9.73;;;-5.70;99.90;;;;;;5055111;28;20584;-73
2024/01/11 07:31:59;;;;;;;18.42;12.00;;;-5.80;99.90;;;;;;5055611;28;20281;-73
2024/01/11 07:34:27;;;;;;;14.52;9.55;;;-5.80;99.90;;;;;;5050869;28;20233;-73
2024/01/11 07:36:54;;;;;;;18.70;11.15;;;-5.80;99.90;;;;;;5051404;28;20214;-73
2024/01/11 07:39:22;;;;;;;9.73;8.93;;;-5.80;99.90;;;;;;5054329;28;20212;-73
2024/01/11 07:41:49;;;;;;;23.13;10.10;;;-5.70;99.90;;;;;;5050714;28;20228;-73
2024/01/11 07:44:16;;;;;;;15.20;12.00;;;-5.70;99.90;;;;;;5052995;28;20654;-73
2024/01/11 07:46:43;;;;;;;11.75;9.23;;;-5.60;99.90;;;;;;5049475;28;20193;-73
2024/01/11 07:49:10;;;;;;;14.80;11.85;;;-5.70;99.90;;;;;;5055070;27;20205;-73
2024/01/11 07:51:38;;;;;;;14.43;8.35;;;-5.50;99.90;;;;;;5049679;27;20288;-73
2024/01/11 07:54:05;;;;;;;13.55;7.38;;;-5.40;99.90;;;;;;5038056;28;20246;-73
2024/01/11 07:56:32;;;;;;;10.50;7.00;;;-5.40;99.90;;;;;;5039715;28;20204;-73
2024/01/11 07:58:59;;;;;;;10.25;9.23;;;-5.40;99.90;;;;;;5046601;28;20208;-73
2024/01/11 08:01:26;;;;;;;16.65;11.60;;;-5.30;99.90;;;;;;5045536;28;20234;-73
2024/01/11 08:03:53;;;;;;;16.92;9.90;;;-5.40;99.90;;;;;;5050128;28;20204;-73
2024/01/11 08:06:19;;;;;;;12.20;10.05;;;-5.40;99.90;;;;;;5063718;28;20204;-73
2024/01/11 08:08:51;;;;;;;10.35;9.30;;;-5.40;99.90;;;;;;5063460;28;20208;-73
2024/01/11 08:11:18;;;;;;;13.43;11.95;;;-5.40;99.90;;;;;;5050921;28;20252;-73
2024/01/11 08:13:45;;;;;;;13.52;9.13;;;-5.30;99.90;;;;;;5061442;28;20221;-73
2024/01/11 08:16:17;;;;;;;18.85;8.27;;;-5.30;99.90;;;;;;5061516;28;20208;-72
2024/01/11 08:18:45;;;;;;;9.85;8.95;;;-5.30;99.90;;;;;;5057848;28;20652;-72
2024/01/11 08:21:12;;;;;;;11.88;10.35;;;-5.20;99.90;;;;;;5059486;28;20272;-73
2024/01/11 08:23:44;;;;;;;19.23;11.35;;;-5.00;99.90;;;;;;5056590;28;20215;-73
2024/01/11 08:26:12;;;;;;;14.23;12.05;;;-4.90;99.90;;;;;;5058359;27;20639;-73
2024/01/11 08:28:39;;;;;;;13.65;9.35;;;-4.70;99.90;;;;;;5044467;28;20209;-73
2024/01/11 08:31:06;;;;;;;13.23;10.60;;;-4.60;99.90;;;;;;5047959;27;20219;-73
2024/01/11 08:33:33;;;;;;;17.50;12.32;;;-4.50;99.90;;;;;;5051552;28;20405;-73
2024/01/11 08:36:03;;;;;;;16.33;11.25;;;-4.50;99.90;;;;;;5054147;28;20209;-73
2024/01/11 08:38:30;;;;;;;20.85;15.40;;;-4.40;99.90;;;;;;5052725;27;20211;-73
2024/01/11 08:40:58;;;;;;;30.85;16.05;;;-4.20;99.90;;;;;;5049941;28;20207;-73
2024/01/11 08:43:26;;;;;;;11.93;8.27;;;-4.10;99.90;;;;;;5052350;27;20556;-73
2024/01/11 08:45:54;;;;;;;15.32;9.65;;;-4.20;99.90;;;;;;5049300;28;20221;-73
2024/01/11 08:48:20;;;;;;;14.55;9.68;;;-4.20;99.90;;;;;;5051152;28;20222;-73
2024/01/11 08:50:47;;;;;;;21.23;11.93;;;-4.10;99.90;;;;;;5047094;27;20587;-73
2024/01/11 08:53:15;;;;;;;31.58;12.38;;;-4.10;99.90;;;;;;5047444;28;20205;-73
2024/01/11 08:55:42;;;;;;;18.88;11.30;;;-4.10;99.90;;;;;;5033658;28;20211;-73
2024/01/11 08:58:10;;;;;;;14.13;11.82;;;-4.10;99.90;;;;;;5045470;28;20212;-73
2024/01/11 09:00:38;;;;;;;20.88;9.55;;;-4.20;99.90;;;;;;5044328;28;20215;-73
2024/01/11 09:03:05;;;;;;;16.15;11.90;;;-4.20;99.90;;;;;;5043603;28;20201;-73
2024/01/11 09:05:32;;;;;;;18.02;13.13;;;-4.10;99.90;;;;;;5047626;28;20201;-73
2024/01/11 09:07:59;;;;;;;15.07;11.70;;;-4.10;99.90;;;;;;5062814;28;20212;-73
2024/01/11 09:10:27;;;;;;;30.48;13.73;;;-4.10;99.90;;;;;;5064205;28;20214;-73
2024/01/11 09:12:54;;;;;;;18.25;12.38;;;-4.10;99.90;;;;;;5063515;27;20215;-73
2024/01/11 09:15:21;;;;;;;15.20;12.32;;;-4.00;99.90;;;;;;5062614;28;20227;-73
2024/01/11 09:17:49;;;;;;;18.20;11.88;;;-4.00;99.90;;;;;;5061854;28;20291;-73
2024/01/11 09:20:18;;;;;;;17.90;10.50;;;-4.00;99.90;;;;;;5061781;28;20531;-73
2024/01/11 09:22:45;;;;;;;17.85;12.93;;;-3.90;99.90;;;;;;5047758;28;20200;-71
2024/01/11 09:25:12;;;;;;;23.17;11.63;;;-3.80;99.90;;;;;;5052887;28;20199;-72
2024/01/11 09:27:39;;;;;;;19.88;14.43;;;-3.60;99.90;;;;;;5056795;28;20204;-72
2024/01/11 09:30:08;;;;;;;26.58;15.40;;;-3.60;99.90;;;;;;5049450;28;20200;-72
2024/01/11 09:32:35;;;;;;;18.65;10.73;;;-3.70;99.90;;;;;;5055905;27;20237;-71
2024/01/11 09:35:04;;;;;;;13.35;11.38;;;-3.70;99.90;;;;;;5056706;28;20227;-72
2024/01/11 09:37:31;;;;;;;20.45;12.48;;;-3.70;99.90;;;;;;5055571;27;20206;-72
2024/01/11 09:39:58;;;;;;;22.55;13.10;;;-3.70;99.90;;;;;;5048680;28;20209;-72
2024/01/11 09:42:26;;;;;;;15.63;9.73;;;-3.70;99.90;;;;;;5053852;27;20302;-72
2024/01/11 09:44:55;;;;;;;19.77;13.05;;;-3.60;99.90;;;;;;5051813;28;20721;-72
2024/01/11 09:47:23;;;;;;;42.55;12.77;;;-3.60;99.90;;;;;;5053114;28;20256;-72
2024/01/11 09:49:52;;;;;;;14.18;8.65;;;-3.50;99.90;;;;;;5059581;27;20563;-72
2024/01/11 09:52:22;;;;;;;26.77;13.57;;;-3.50;99.90;;;;;;5051612;28;20208;-72
2024/01/11 09:54:49;;;;;;;19.45;13.00;;;-3.40;99.90;;;;;;5048659;28;20225;-72
2024/01/11 09:57:19;;;;;;;13.68;10.88;;;-3.30;99.90;;;;;;5048279;28;20283;-72
2024/01/11 09:59:46;;;;;;;16.15;13.02;;;-3.30;99.90;;;;;;5046799;28;20201;-72
2024/01/11 10:02:13;;;;;;;26.85;11.77;;;-3.10;99.90;;;;;;5041378;28;20201;-72
2024/01/11 10:04:43;;;;;;;29.33;15.75;;;-3.20;99.90;;;;;;5049439;28;20202;-71
2024/01/11 10:07:10;;;;;;;18.90;13.52;;;-3.20;99.90;;;;;;5064811;28;20222;-71
2024/01/11 10:09:38;;;;;;;13.63;11.95;;;-3.30;99.90;;;;;;5067762;28;20315;-72
2024/01/11 10:12:06;;;;;;;31.98;12.52;;;-3.40;99.90;;;;;;5067078;28;20196;-72
2024/01/11 10:14:33;;;;;;;16.33;10.10;;;-3.30;99.90;;;;;;5065206;28;20219;-72
2024/01/11 10:17:00;;;;;;;26.52;11.80;;;-3.10;99.90;;;;;;5056079;28;20210;-72
2024/01/11 10:19:26;;;;;;;25.65;12.85;;;-3.10;99.90;;;;;;5064112;27;20668;-72
2024/01/11 10:21:53;;;;;;;19.17;13.00;;;-3.00;99.90;;;;;;5063913;28;20232;-72
2024/01/11 10:24:23;;;;;;;23.17;11.77;;;-3.00;99.60;;;;;;5063437;28;20294;-72
2024/01/11 10:26:51;;;;;;;13.48;9.52;;;-3.00;99.60;;;;;;5061493;28;20560;-72
2024/01/11 10:29:18;;;;;;;22.20;11.65;;;-2.90;99.60;;;;;;5062110;28;20239;-72
2024/01/11 10:31:44;;;;;;;20.45;11.40;;;-2.90;99.50;;;;;;5058835;28;20201;-73
2024/01/11 10:34:11;;;;;;;22.98;13.43;;;-2.90;99.10;;;;;;5046493;28;20310;-72
2024/01/11 10:36:38;;;;;;;21.67;12.10;;;-2.90;99.00;;;;;;5057694;28;20207;-72
2024/01/11 10:39:05;;;;;;;25.27;11.98;;;-2.90;98.80;;;;;;5058787;28;20215;-72
2024/01/11 10:41:37;;;;;;;18.75;13.93;;;-2.80;98.90;;;;;;5056602;27;20208;-72
2024/01/11 10:44:10;;;;;;;50.03;16.38;;;-2.70;99.00;;;;;;5056476;28;20599;-73
2024/01/11 10:46:37;;;;;;;16.08;11.38;;;-2.70;98.70;;;;;;5055090;28;20199;-72
2024/01/11 10:49:07;;;;;;;23.00;13.90;;;-2.70;98.60;;;;;;5047576;27;20631;-72
2024/01/11 10:51:34;;;;;;;12.00;10.15;;;-2.80;98.40;;;;;;5048060;27;20208;-72
2024/01/11 10:54:02;;;;;;;22.13;12.52;;;-2.70;98.70;;;;;;5050531;28;20661;-72
2024/01/11 10:56:30;;;;;;;21.23;11.80;;;-2.70;98.80;;;;;;5047820;28;20280;-72
2024/01/11 10:58:58;;;;;;;17.45;11.30;;;-2.60;98.70;;;;;;5050725;28;20204;-72
2024/01/11 11:01:26;;;;;;;20.30;13.70;;;-2.60;98.70;;;;;;5050576;28;20238;-72
2024/01/11 11:03:55;;;;;;;20.63;11.65;;;-2.50;98.80;;;;;;5048623;28;20609;-72
2024/01/11 11:06:24;;;;;;;23.40;13.05;;;-2.40;98.70;;;;;;5041567;28;20209;-72
2024/01/11 11:08:53;;;;;;;14.32;12.80;;;-2.30;98.60;;;;;;5053871;28;20231;-72
2024/01/11 11:11:21;;;;;;;17.63;13.65;;;-2.20;98.40;;;;;;5066711;27;20208;-72
2024/01/11 11:13:49;;;;;;;16.95;11.45;;;-2.20;98.20;;;;;;5051714;28;20278;-72
2024/01/11 11:16:16;;;;;;;20.38;14.25;;;-2.10;98.20;;;;;;5065942;27;20223;-72
2024/01/11 11:18:44;;;;;;;31.98;16.92;;;-2.00;98.10;;;;;;5062932;28;20204;-73
2024/01/11 11:21:12;;;;;;;21.00;13.65;;;-1.90;98.10;;;;;;5063757;28;20669;-72
2024/01/11 11:23:39;;;;;;;20.63;9.85;;;-1.90;97.70;;;;;;5058915;28;20204;-72
2024/01/11 11:26:08;;;;;;;23.27;14.45;;;-1.80;97.80;;;;;;5059819;28;20699;-73
2024/01/11 11:28:36;;;;;;;22.75;13.05;;;-1.70;97.70;;;;;;5058679;27;20564;-73
2024/01/11 11:31:03;;;;;;;26.70;16.58;;;-1.70;97.60;;;;;;5061462;28;20200;-72
2024/01/11 11:33:31;;;;;;;24.77;14.95;;;-1.70;97.30;;;;;;5059435;27;20227;-72
2024/01/11 11:36:00;;;;;;;28.27;14.02;;;-1.70;97.20;;;;;;5058794;28;20711;-73
2024/01/11 11:38:28;;;;;;;24.20;14.75;;;-1.70;97.30;;;;;;5058564;28;20207;-73
2024/01/11 11:40:57;;;;;;;24.52;14.35;;;-1.60;96.90;;;;;;5055547;28;20201;-72
2024/01/11 11:43:24;;;;;;;28.67;14.88;;;-1.60;97.10;;;;;;5051468;27;20203;-72
2024/01/11 11:45:52;;;;;;;17.15;12.32;;;-1.40;97.30;;;;;;5053995;28;20196;-73
2024/01/11 11:48:52;;;;;;;23.35;14.73;;;-1.40;97.10;;;;;;5055602;28;20212;-73
2024/01/11 11:51:21;;;;;;;23.48;14.25;;;-1.40;96.60;;;;;;5053379;28;20204;-72
2024/01/11 11:53:49;;;;;;;22.80;14.52;;;-1.30;96.60;;;;;;5050639;28;20208;-72
2024/01/11 11:56:18;;;;;;;16.15;12.68;;;-1.30;96.60;;;;;;5046261;28;20693;-73
2024/01/11 11:58:46;;;;;;;30.92;13.95;;;-1.20;96.60;;;;;;5042252;28;20208;-73
2024/01/11 12:01:14;;;;;;;28.50;15.35;;;-1.10;96.50;;;;;;5041510;28;20286;-73
2024/01/11 12:03:46;;;;;;;18.42;13.25;;;-1.10;96.40;;;;;;5048751;28;20216;-73
2024/01/11 12:06:14;;;;;;;16.55;12.55;;;-1.10;96.50;;;;;;5048108;28;20537;-73
2024/01/11 12:08:44;;;;;;;21.80;13.88;;;-1.00;96.40;;;;;;5058707;28;20227;-73
2024/01/11 12:11:14;;;;;;;31.33;13.48;;;-1.00;96.20;;;;;;5065582;28;20285;-73
2024/01/11 12:13:41;;;;;;;28.05;14.55;;;-0.90;95.90;;;;;;5065049;28;20231;-73
2024/01/11 12:16:08;;;;;;;18.52;12.48;;;-0.90;95.90;;;;;;5063274;28;20234;-73
2024/01/11 12:18:35;;;;;;;28.52;14.25;;;-0.90;95.90;;;;;;5058044;28;20196;-73
2024/01/11 12:21:01;;;;;;;29.88;15.50;;;-1.00;95.70;;;;;;5063293;28;20291;-72
2024/01/11 12:23:29;;;;;;;18.43;13.60;;;-1.00;95.40;;;;;;5061529;28;20286;-72
2024/01/11 12:25:58;;;;;;;22.45;13.85;;;-1.00;95.90;;;;;;5061887;28;20722;-72
2024/01/11 12:28:25;;;;;;;26.23;14.75;;;-0.90;96.00;;;;;;5060383;28;20210;-72
2024/01/11 12:30:52;;;;;;;32.00;17.42;;;-0.80;95.60;;;;;;5058182;28;20196;-73
2024/01/11 12:33:19;;;;;;;23.45;12.35;;;-0.80;95.50;;;;;;5059518;28;20670;-73
2024/01/11 12:35:46;;;;;;;20.42;15.63;;;-0.70;95.80;;;;;;5052942;28;20222;-73